KDLF/DLF METAR and TAF weather

Enter ICAO airport designator
Station Type Date Time Source
KDLF METAR 2022/09/28 17:55 UTC NOAA

KDLF 281755Z AUTO 15006KT 10SM CLR 28/08 A3024 RMK AO2 SLP232 T02790082 10280 20130 50003 $


Station Type Date Time Source
KDLF Decoded METAR 2022/09/28 17:55 UTC NOAA

Laughlin, Laughlin Air Force Base Auxiliary Airfield, TX, United States (KDLF) 29-07-00N 100-28-00W 294M
Sep 28, 2022 - 01:55 PM EDT / 2022.09.28 1755 UTC
Wind: from the SSE (150 degrees) at 7 MPH (6 KT):0
Visibility: 10 mile(s):0
Sky conditions: clear
Temperature: 82.2 F (27.9 C)
Dew Point: 46.8 F (8.2 C)
Relative Humidity: 28%
Pressure (altimeter): 30.24 in. Hg (1024 hPa)
Pressure tendency: 0.01 inches (0.3 hPa) higher than three hours ago
ob: KDLF 281755Z AUTO 15006KT 10SM CLR 28/08 A3024 RMK AO2 SLP232 T02790082 10280 20130 50003
cycle: 18

Station Type Date Time Source
KDLF TAF 2022/09/28 11:59 UTC NOAA

TAF KDLF 281100Z 2811/2917 02006KT 9999 SKC QNH3017INS
BECMG 2819/2820 12006KT 9999 SKC QNH3016INS TX30/2821Z TN14/2812Z

Example: see airport list